Time;durP1;ratioP1;P1;durP2;ratioP2;P2;SDS_P1;SDS_P2;PMS_P1;PMS_P2;Temp;Humidity;BMP_temperature;BMP_pressure;BME280_temperature;BME280_humidity;BME280_pressure;Samples;Min_cycle;Max_cycle;Signal;HPM_P1;HPM_P2
2023/01/17 00:00:35;;;;;;;;;;;5.40;99.90;;;;;;5013970;28;19925;-76
2023/01/17 00:03:02;;;;;;;;;;;5.40;99.90;;;;;;5010489;28;19925;-76
2023/01/17 00:10:58;;;;;;;;;;;5.30;99.90;;;;;;5009543;28;19921;-75
2023/01/17 00:13:25;;;;;;;;;;;5.20;99.90;;;;;;5017372;28;20055;-76
2023/01/17 00:15:52;;;;;;;;;;;5.20;99.90;;;;;;5013429;28;19921;-76
2023/01/17 00:18:19;;;;;;;;;;;5.20;99.90;;;;;;5018109;28;20028;-76
2023/01/17 00:26:17;;;;;;;;;;;5.20;99.90;;;;;;5010107;28;20348;-74
2023/01/17 01:35:40;;;;;;;;;;;4.70;99.90;;;;;;5019574;28;19984;-75
2023/01/17 01:38:07;;;;;;;;;;;4.70;99.90;;;;;;5001215;28;19925;-76
2023/01/17 01:40:34;;;;;;;;;;;4.70;99.90;;;;;;5030413;28;19936;-77
2023/01/17 01:43:04;;;;;;;;;;;4.80;99.90;;;;;;5019608;28;19929;-73
2023/01/17 01:45:31;;;;;;;;;;;4.80;99.90;;;;;;5011696;28;20372;-73
2023/01/17 01:48:02;;;;;;;;;;;4.80;99.90;;;;;;5015727;28;19964;-75
2023/01/17 01:50:30;;;;;;;;;;;4.80;99.90;;;;;;5025318;28;19925;-75
2023/01/17 01:53:00;;;;;;;;;;;5.60;99.90;;;;;;5018363;28;19987;-75
2023/01/17 01:55:29;;;;;;;;;;;4.80;99.90;;;;;;5027512;28;19929;-75
2023/01/17 01:57:57;;;;;;;;;;;4.80;99.90;;;;;;5015599;28;19924;-74
2023/01/17 02:00:26;;;;;;;;;;;4.90;99.90;;;;;;5020215;28;19942;-74
2023/01/17 02:02:53;;;;;;;;;;;4.90;99.90;;;;;;5021082;28;19921;-73
2023/01/17 02:05:23;;;;;;;;;;;4.90;99.90;;;;;;5007979;28;19924;-74
2023/01/17 02:07:54;;;;;;;;;;;4.90;99.90;;;;;;5020296;28;19925;-76
2023/01/17 02:10:21;;;;;;;;;;;4.90;99.90;;;;;;5060517;22;19963;-75
2023/01/17 02:12:48;;;;;;;;;;;4.80;99.90;;;;;;5058200;28;19943;-75
2023/01/17 02:15:15;;;;;;;;;;;4.70;99.90;;;;;;5077905;28;19925;-75
2023/01/17 02:17:46;;;;;;;;;;;4.70;99.90;;;;;;5071802;28;19927;-74
2023/01/17 02:20:28;;;;;;;;;;;4.70;99.90;;;;;;5048182;28;19924;-74
2023/01/17 02:23:19;;;;;;;;;;;4.60;99.90;;;;;;5064700;28;19928;-74
2023/01/17 02:25:55;;;;;;;;;;;4.60;99.90;;;;;;5069970;28;20361;-74
2023/01/17 02:28:28;;;;;;;;;;;4.60;99.90;;;;;;5051935;28;20361;-74
2023/01/17 02:31:01;;;;;;;;;;;4.50;99.90;;;;;;5054909;28;19931;-74
2023/01/17 02:33:31;;;;;;;;;;;4.40;99.90;;;;;;5052776;28;19935;-74
2023/01/17 02:36:04;;;;;;;;;;;4.50;99.90;;;;;;5067044;28;19920;-74
2023/01/17 02:38:35;;;;;;;;;;;4.50;99.90;;;;;;5053982;28;20018;-73
2023/01/17 02:41:06;;;;;;;;;;;4.50;99.90;;;;;;5065785;28;19928;-74
2023/01/17 02:43:34;;;;;;;;;;;4.50;99.90;;;;;;5070721;28;19928;-74
2023/01/17 02:46:02;;;;;;;;;;;4.40;99.90;;;;;;5055219;28;19931;-73
2023/01/17 02:48:31;;;;;;;;;;;4.40;99.90;;;;;;5063350;28;20030;-74
2023/01/17 02:51:21;;;;;;;;;;;4.40;99.90;;;;;;5044054;28;19928;-74
2023/01/17 02:53:54;;;;;;;;;;;4.40;99.90;;;;;;5055613;28;19927;-74
2023/01/17 02:56:27;;;;;;;;;;;4.40;99.90;;;;;;5071468;28;20049;-73
2023/01/17 02:59:02;;;;;;;;;;;4.30;99.90;;;;;;5074185;28;19924;-73
2023/01/17 03:01:34;;;;;;;;;;;4.30;99.90;;;;;;5072049;28;19978;-73
2023/01/17 03:04:03;;;;;;;;;;;4.20;99.90;;;;;;5054023;28;19930;-74
2023/01/17 03:06:33;;;;;;;;;;;4.20;99.90;;;;;;5073807;28;20344;-74
2023/01/17 03:09:00;;;;;;;;;;;4.20;99.90;;;;;;5078048;28;19928;-73
2023/01/17 03:11:27;;;;;;;;;;;4.20;99.90;;;;;;5076022;28;19924;-73
2023/01/17 03:13:54;;;;;;;;;;;4.20;99.90;;;;;;5080837;28;20281;-74
2023/01/17 03:16:21;;;;;;;;;;;4.20;99.90;;;;;;5072170;28;19924;-73
2023/01/17 03:18:50;;;;;;;;;;;4.20;99.90;;;;;;5075610;28;20003;-73
2023/01/17 03:21:17;;;;;;;;;;;4.20;99.90;;;;;;5074887;28;19924;-73
2023/01/17 03:23:44;;;;;;;;;;;4.20;99.90;;;;;;5060434;28;19930;-73
2023/01/17 03:26:10;;;;;;;;;;;4.20;99.90;;;;;;5069999;28;20345;-73
2023/01/17 03:28:37;;;;;;;;;;;4.20;99.90;;;;;;5081555;28;19927;-72
2023/01/17 03:31:04;;;;;;;;;;;4.20;99.90;;;;;;5053877;28;19928;-73
2023/01/17 03:33:30;;;;;;;;;;;4.20;99.90;;;;;;5062157;28;20235;-74
2023/01/17 03:35:59;;;;;;;;;;;4.20;99.90;;;;;;5066744;28;19932;-74
2023/01/17 03:38:26;;;;;;;;;;;4.20;99.90;;;;;;5081166;28;20377;-74
2023/01/17 03:40:52;;;;;;;;;;;4.20;99.90;;;;;;5054796;28;19931;-74
2023/01/17 03:43:19;;;;;;;;;;;4.20;99.90;;;;;;5072592;28;20405;-74
2023/01/17 03:45:48;;;;;;;;;;;4.30;99.90;;;;;;5076910;28;19941;-73
2023/01/17 03:48:15;;;;;;;;;;;4.30;99.90;;;;;;5051873;28;20366;-73
2023/01/17 03:50:41;;;;;;;;;;;4.20;99.90;;;;;;5052327;28;19931;-74
2023/01/17 03:53:09;;;;;;;;;;;4.20;99.90;;;;;;5078501;28;19924;-73
2023/01/17 03:55:36;;;;;;;;;;;4.20;99.90;;;;;;5075571;28;20660;-73
2023/01/17 03:58:03;;;;;;;;;;;4.20;99.90;;;;;;5071197;28;20393;-73
2023/01/17 04:00:29;;;;;;;;;;;4.20;99.90;;;;;;5061226;28;20651;-72
2023/01/17 04:02:56;;;;;;;;;;;4.20;99.90;;;;;;5062623;28;19920;-73
2023/01/17 04:05:23;;;;;;;;;;;4.20;99.90;;;;;;5051482;22;20403;-75
2023/01/17 04:07:50;;;;;;;;;;;4.20;99.90;;;;;;4994806;28;19944;-74
2023/01/17 04:10:18;;;;;;;;;;;4.20;99.90;;;;;;4991935;28;19941;-76
2023/01/17 04:12:45;;;;;;;;;;;4.20;99.90;;;;;;4990642;28;19934;-75
2023/01/17 04:15:12;;;;;;;;;;;4.20;99.90;;;;;;4992145;28;19922;-76
2023/01/17 04:17:38;;;;;;;;;;;4.20;99.90;;;;;;4992948;28;19929;-76
2023/01/17 04:20:05;;;;;;;;;;;4.20;99.90;;;;;;5001135;28;19934;-74
2023/01/17 04:22:32;;;;;;;;;;;4.30;99.90;;;;;;4998302;28;19929;-77
2023/01/17 04:24:59;;;;;;;;;;;4.30;99.90;;;;;;4998819;28;19996;-75
2023/01/17 04:27:27;;;;;;;;;;;4.20;99.90;;;;;;4994396;28;19933;-74
2023/01/17 04:29:53;;;;;;;;;;;4.20;99.90;;;;;;5019294;28;19944;-74
2023/01/17 04:32:20;;;;;;;;;;;4.20;99.90;;;;;;4992573;28;19928;-76
2023/01/17 04:34:47;;;;;;;;;;;4.20;99.90;;;;;;5006810;28;20284;-75
2023/01/17 04:37:13;;;;;;;;;;;4.10;99.90;;;;;;4992118;28;19944;-75
2023/01/17 04:39:40;;;;;;;;;;;4.10;99.90;;;;;;4992926;28;19932;-74
2023/01/17 04:42:07;;;;;;;;;;;4.10;99.90;;;;;;4994872;28;19932;-76
2023/01/17 04:44:35;;;;;;;;;;;4.10;99.90;;;;;;4991359;28;19934;-74
2023/01/17 04:47:02;;;;;;;;;;;3.50;99.90;;;;;;4987649;28;20335;-74
2023/01/17 04:49:28;;;;;;;;;;;4.00;99.90;;;;;;4989879;28;19949;-74
2023/01/17 04:51:55;;;;;;;;;;;4.00;99.90;;;;;;4993613;28;20426;-73
2023/01/17 04:54:22;;;;;;;;;;;3.90;99.90;;;;;;4997369;28;20302;-74
2023/01/17 04:56:48;;;;;;;;;;;3.80;99.90;;;;;;4995068;28;19934;-74
2023/01/17 04:59:15;;;;;;;;;;;3.70;99.90;;;;;;4993630;28;19940;-74
2023/01/17 05:01:43;;;;;;;;;;;3.60;99.90;;;;;;4990364;28;19926;-74
2023/01/17 05:04:10;;;;;;;;;;;3.50;99.90;;;;;;4991119;28;19922;-74
2023/01/17 05:06:36;;;;;;;;;;;3.40;99.90;;;;;;4990012;28;19933;-73
2023/01/17 05:09:03;;;;;;;;;;;3.40;99.90;;;;;;4989748;28;19980;-74
2023/01/17 05:11:30;;;;;;;;;;;3.40;99.90;;;;;;4994543;28;19937;-74
2023/01/17 05:13:57;;;;;;;;;;;3.40;99.90;;;;;;4995456;28;20287;-74
2023/01/17 05:16:23;;;;;;;;;;;3.30;99.90;;;;;;4996157;28;19995;-74
2023/01/17 05:18:52;;;;;;;;;;;3.30;99.90;;;;;;4992012;28;20005;-73
2023/01/17 05:21:19;;;;;;;;;;;4.40;99.90;;;;;;5006234;22;20413;-82
2023/01/17 05:23:45;;;;;;;;;;;3.20;99.90;;;;;;5040395;28;19925;-82
2023/01/17 05:26:12;;;;;;;;;;;3.20;99.90;;;;;;5034581;28;19929;-82
2023/01/17 05:28:39;;;;;;;;;;;3.10;99.90;;;;;;5055620;28;19924;-82
2023/01/17 05:31:06;;;;;;;;;;;3.10;99.90;;;;;;5054852;28;20285;-81
2023/01/17 05:33:32;;;;;;;;;;;3.10;99.90;;;;;;5057626;28;20293;-82
2023/01/17 05:36:00;;;;;;;;;;;3.10;99.90;;;;;;5046354;28;19925;-81
2023/01/17 05:38:27;;;;;;;;;;;3.10;99.90;;;;;;5046934;28;19948;-82
2023/01/17 05:40:54;;;;;;;;;;;3.10;99.90;;;;;;5055029;28;19924;-82
2023/01/17 05:43:21;;;;;;;;;;;3.00;99.90;;;;;;5065452;28;19957;-82
2023/01/17 05:45:48;;;;;;;;;;;3.10;99.90;;;;;;5063485;28;19994;-82
2023/01/17 05:48:15;;;;;;;;;;;3.10;99.90;;;;;;5058239;28;19925;-81
2023/01/17 05:50:42;;;;;;;;;;;3.10;99.90;;;;;;5062093;28;20337;-80
2023/01/17 05:53:11;;;;;;;;;;;3.20;99.90;;;;;;5062614;28;19924;-81
2023/01/17 05:55:38;;;;;;;;;;;3.20;99.90;;;;;;5030273;28;19921;-81
2023/01/17 05:58:05;;;;;;;;;;;3.20;99.90;;;;;;5034088;28;19929;-81
2023/01/17 06:00:32;;;;;;;;;;;3.20;99.90;;;;;;5057527;28;20018;-82
2023/01/17 06:03:00;;;;;;;;;;;3.20;99.90;;;;;;5043740;28;19925;-81
2023/01/17 06:05:27;;;;;;;;;;;3.30;99.90;;;;;;5059008;28;19925;-82
2023/01/17 06:07:55;;;;;;;;;;;3.30;99.90;;;;;;5059319;28;19974;-81
2023/01/17 06:10:24;;;;;;;;;;;3.40;99.90;;;;;;5054443;28;19959;-82
2023/01/17 06:12:59;;;;;;;;;;;3.40;99.90;;;;;;5033949;28;19924;-81
2023/01/17 06:15:26;;;;;;;;;;;3.50;99.90;;;;;;5061804;28;20573;-81
2023/01/17 06:17:53;;;;;;;;;;;3.50;99.90;;;;;;5051828;28;19948;-81
2023/01/17 06:20:19;;;;;;;;;;;3.50;99.90;;;;;;5063755;28;19934;-82
2023/01/17 06:22:46;;;;;;;;;;;3.50;99.90;;;;;;5053319;28;19920;-81
2023/01/17 06:25:13;;;;;;;;;;;3.50;99.90;;;;;;5048302;28;19920;-81
2023/01/17 06:27:41;;;;;;;;;;;3.60;99.90;;;;;;5065123;28;19932;-81
2023/01/17 06:30:08;;;;;;;;;;;3.60;99.90;;;;;;5063279;28;19943;-81
2023/01/17 06:32:35;;;;;;;;;;;3.60;99.90;;;;;;5060250;28;19974;-82
2023/01/17 06:35:02;;;;;;;;;;;3.60;99.90;;;;;;5041194;28;20297;-79
2023/01/17 06:37:28;;;;;;;;;;;3.60;99.90;;;;;;5034464;28;19921;-81
2023/01/17 06:39:55;;;;;;;;;;;3.60;99.90;;;;;;5041167;28;19929;-81
2023/01/17 06:42:22;;;;;;;;;;;3.50;99.90;;;;;;5065778;28;19935;-81
2023/01/17 06:44:50;;;;;;;;;;;3.50;99.90;;;;;;5080353;28;19908;-81
2023/01/17 06:47:17;;;;;;;;;;;3.40;99.90;;;;;;5076724;28;19921;-81
2023/01/17 06:49:43;;;;;;;;;;;3.30;99.90;;;;;;5062603;28;19931;-80
2023/01/17 06:52:10;;;;;;;;;;;3.30;99.90;;;;;;5054762;28;19921;-81
2023/01/17 06:54:37;;;;;;;;;;;3.30;99.90;;;;;;5068535;28;19931;-81
2023/01/17 06:57:03;;;;;;;;;;;3.30;99.90;;;;;;5062288;28;19931;-81
2023/01/17 06:59:30;;;;;;;;;;;3.30;99.90;;;;;;5061290;28;19965;-81
2023/01/17 07:01:58;;;;;;;;;;;3.30;99.90;;;;;;5036819;28;19932;-81
2023/01/17 07:04:25;;;;;;;;;;;3.30;99.90;;;;;;5067818;28;20674;-81
2023/01/17 07:06:51;;;;;;;;;;;3.30;99.90;;;;;;5039952;28;19920;-81
2023/01/17 07:09:18;;;;;;;;;;;3.40;99.90;;;;;;5060713;28;19921;-81
2023/01/17 07:11:45;;;;;;;;;;;3.40;99.90;;;;;;5037115;28;20322;-81
2023/01/17 07:14:12;;;;;;;;;;;3.40;99.90;;;;;;5050123;28;20015;-81
2023/01/17 07:16:39;;;;;;;;;;;3.40;99.90;;;;;;5058552;28;19931;-81
2023/01/17 07:19:07;;;;;;;;;;;3.40;99.90;;;;;;5058847;28;19925;-81
2023/01/17 07:21:34;;;;;;;;;;;3.40;99.90;;;;;;5064509;28;19931;-80
2023/01/17 07:24:00;;;;;;;;;;;3.40;99.90;;;;;;5067801;28;20255;-82
2023/01/17 07:26:27;;;;;;;;;;;3.40;99.90;;;;;;5054751;28;20118;-82
2023/01/17 07:28:54;;;;;;;;;;;3.40;99.90;;;;;;5044461;28;19928;-82
2023/01/17 07:31:21;;;;;;;;;;;3.40;99.90;;;;;;5040213;28;19920;-82
2023/01/17 07:33:47;;;;;;;;;;;3.40;99.90;;;;;;5067543;28;20030;-80
2023/01/17 07:36:15;;;;;;;;;;;3.40;99.90;;;;;;5058065;28;19925;-81
2023/01/17 07:38:43;;;;;;;;;;;3.50;99.90;;;;;;5049465;28;19933;-81
2023/01/17 07:41:10;;;;;;;;;;;3.40;99.90;;;;;;5052680;28;20447;-81
2023/01/17 07:43:37;;;;;;;;;;;3.60;99.90;;;;;;5060116;28;20392;-81
2023/01/17 07:46:05;;;;;;;;;;;3.60;99.90;;;;;;5048829;28;19925;-81
2023/01/17 07:48:32;;;;;;;;;;;3.60;99.90;;;;;;5027303;28;20092;-82
2023/01/17 07:50:59;;;;;;;;;;;3.70;99.90;;;;;;5043404;28;19928;-82
2023/01/17 07:53:28;;;;;;;;;;;3.70;99.90;;;;;;5027264;28;20004;-81
2023/01/17 07:55:55;;;;;;;;;;;3.70;99.90;;;;;;5047559;28;19929;-82
2023/01/17 07:58:22;;;;;;;;;;;3.70;99.90;;;;;;5047962;28;19920;-83
2023/01/17 08:00:48;;;;;;;;;;;3.70;99.90;;;;;;5044024;28;19932;-82
2023/01/17 08:03:17;;;;;;;;;;;3.80;99.90;;;;;;5048307;28;19929;-82
2023/01/17 08:05:44;;;;;;;;;;;3.80;99.90;;;;;;5044493;28;19925;-82
2023/01/17 08:08:11;;;;;;;;;;;3.90;99.90;;;;;;5041080;28;19924;-81
2023/01/17 08:10:39;;;;;;;;;;;4.00;99.90;;;;;;5030728;28;19924;-80
2023/01/17 08:13:06;;;;;;;;;;;4.00;99.90;;;;;;5029940;28;19952;-81
2023/01/17 08:15:32;;;;;;;;;;;4.10;99.90;;;;;;5048945;28;19921;-81
2023/01/17 08:17:59;;;;;;;;;;;4.00;99.90;;;;;;5043861;28;19929;-81
2023/01/17 08:20:26;;;;;;;;;;;4.00;99.90;;;;;;5044725;28;19971;-81
2023/01/17 08:22:54;;;;;;;;;;;3.90;99.90;;;;;;5046507;28;19928;-81
2023/01/17 08:25:21;;;;;;;;;;;3.80;99.90;;;;;;5045080;28;19929;-81
2023/01/17 08:27:49;;;;;;;;;;;3.80;99.90;;;;;;5043686;28;20405;-81
2023/01/17 08:30:16;;;;;;;;;;;3.70;99.90;;;;;;5026346;28;19936;-82
2023/01/17 08:32:43;;;;;;;;;;;3.60;99.90;;;;;;5043965;28;19925;-82
2023/01/17 08:35:10;;;;;;;;;;;3.50;99.90;;;;;;5023340;28;19983;-80
2023/01/17 08:37:37;;;;;;;;;;;3.50;99.90;;;;;;5042909;28;19925;-80
2023/01/17 08:40:05;;;;;;;;;;;3.50;99.90;;;;;;5037305;28;19920;-80
2023/01/17 08:42:36;;;;;;;;;;;3.50;99.90;;;;;;5040377;28;19935;-80
2023/01/17 08:45:05;;;;;;;;;;;3.60;99.90;;;;;;5025923;28;19921;-82
2023/01/17 08:47:32;;;;;;;;;;;3.60;99.90;;;;;;5024756;28;19920;-81
2023/01/17 08:49:59;;;;;;;;;;;3.60;99.90;;;;;;5040658;28;19937;-81
2023/01/17 08:52:26;;;;;;;;;;;3.50;99.90;;;;;;5043547;28;19925;-81
2023/01/17 08:54:53;;;;;;;;;;;3.50;99.90;;;;;;5044096;28;19931;-82
2023/01/17 08:57:20;;;;;;;;;;;3.50;99.90;;;;;;5033463;28;19975;-82
2023/01/17 08:59:46;;;;;;;;;;;3.40;99.90;;;;;;5045751;28;19929;-82
2023/01/17 09:02:15;;;;;;;;;;;3.40;99.90;;;;;;5047367;28;19931;-82
2023/01/17 09:04:43;;;;;;;;;;;3.40;99.90;;;;;;5042800;28;19908;-82
2023/01/17 09:07:10;;;;;;;;;;;3.40;99.90;;;;;;5054210;28;19920;-82
2023/01/17 09:09:36;;;;;;;;;;;3.50;99.90;;;;;;5063606;28;19960;-82
2023/01/17 09:12:03;;;;;;;;;;;3.50;99.90;;;;;;5062176;28;19936;-82
2023/01/17 09:14:30;;;;;;;;;;;3.60;99.90;;;;;;5052777;28;19920;-82
2023/01/17 09:16:57;;;;;;;;;;;3.70;99.90;;;;;;5069654;28;19920;-81
2023/01/17 09:19:25;;;;;;;;;;;3.70;99.90;;;;;;5041284;28;19924;-82
2023/01/17 09:21:52;;;;;;;;;;;3.70;99.90;;;;;;5066866;28;19935;-83
2023/01/17 09:24:20;;;;;;;;;;;3.80;99.90;;;;;;5068146;28;19938;-84
2023/01/17 09:26:47;;;;;;;;;;;3.90;99.90;;;;;;5051319;28;19996;-83
2023/01/17 09:29:16;;;;;;;;;;;4.00;99.90;;;;;;5054513;28;20165;-82
2023/01/17 09:31:43;;;;;;;;;;;4.10;99.90;;;;;;5056621;28;20259;-82
2023/01/17 09:34:10;;;;;;;;;;;4.20;99.90;;;;;;5061463;28;20385;-83
2023/01/17 09:36:38;;;;;;;;;;;4.30;99.90;;;;;;5060079;28;19970;-81
2023/01/17 09:39:06;;;;;;;;;;;4.40;99.90;;;;;;5076476;28;19920;-81
2023/01/17 09:41:35;;;;;;;;;;;4.60;99.90;;;;;;5060647;28;19948;-83
2023/01/17 09:44:05;;;;;;;;;;;4.80;99.90;;;;;;5047051;28;19931;-83
2023/01/17 09:46:33;;;;;;;;;;;5.00;99.90;;;;;;5061999;28;19909;-83
2023/01/17 09:49:04;;;;;;;;;;;5.20;99.90;;;;;;5045998;28;19935;-82
2023/01/17 09:51:31;;;;;;;;;;;5.50;99.90;;;;;;5058836;28;19950;-83
2023/01/17 09:54:01;;;;;;;;;;;5.70;99.90;;;;;;5059512;28;19920;-82
2023/01/17 09:56:30;;;;;;;;;;;5.70;99.90;;;;;;5060512;28;19909;-81
2023/01/17 09:59:07;;;;;;;;;;;5.80;99.90;;;;;;5055306;28;19943;-82
2023/01/17 10:01:38;;;;;;;;;;;5.90;99.90;;;;;;5032361;28;19933;-81
2023/01/17 10:04:13;;;;;;;;;;;5.90;99.90;;;;;;5042787;28;20473;-82
2023/01/17 10:06:51;;;;;;;;;;;6.10;99.90;;;;;;5036924;28;19951;-83
2023/01/17 10:09:28;;;;;;;;;;;6.20;99.90;;;;;;5038658;28;20521;-82
2023/01/17 10:12:02;;;;;;;;;;;6.30;99.90;;;;;;5038392;28;19929;-83
2023/01/17 10:14:39;;;;;;;;;;;6.30;99.90;;;;;;5047986;28;19932;-81
2023/01/17 10:17:12;;;;;;;;;;;6.40;99.90;;;;;;5031741;28;19928;-81
2023/01/17 10:19:47;;;;;;;;;;;6.50;99.90;;;;;;5051547;28;20019;-80
2023/01/17 10:22:25;;;;;;;;;;;6.70;99.90;;;;;;5056851;28;19925;-82
2023/01/17 10:25:02;;;;;;;;;;;6.90;99.90;;;;;;5040280;28;19929;-81
2023/01/17 10:27:32;;;;;;;;;;;7.10;99.90;;;;;;5054825;28;19928;-82
2023/01/17 10:30:00;;;;;;;;;;;7.20;99.90;;;;;;5048427;28;20016;-81
2023/01/17 10:32:28;;;;;;;;;;;7.60;99.90;;;;;;5023170;28;19925;-80
2023/01/17 10:34:57;;;;;;;;;;;7.70;99.90;;;;;;5044160;28;19921;-81
2023/01/17 10:37:25;;;;;;;;;;;7.80;99.90;;;;;;5059360;28;19931;-82
2023/01/17 10:39:53;;;;;;;;;;;7.70;99.90;;;;;;5047621;28;19921;-80
2023/01/17 10:42:25;;;;;;;;;;;7.60;99.90;;;;;;5047724;28;19921;-81
2023/01/17 10:44:58;;;;;;;;;;;7.40;99.90;;;;;;5054148;28;19932;-82
2023/01/17 10:47:26;;;;;;;;;;;7.30;99.90;;;;;;5040555;28;19927;-80
2023/01/17 10:49:56;;;;;;;;;;;7.20;99.90;;;;;;5029665;28;19983;-80
2023/01/17 10:52:28;;;;;;;;;;;7.00;99.90;;;;;;5062448;28;19925;-81
2023/01/17 10:55:08;;;;;;;;;;;6.80;99.90;;;;;;5052580;28;19980;-82
2023/01/17 10:57:38;;;;;;;;;;;6.60;99.90;;;;;;5052721;28;19925;-80
2023/01/17 11:00:16;;;;;;;;;;;6.60;99.90;;;;;;5046045;28;19987;-81
2023/01/17 11:02:46;;;;;;;;;;;6.50;99.90;;;;;;5052122;28;19946;-80
2023/01/17 11:05:18;;;;;;;;;;;6.40;99.90;;;;;;5061709;28;19979;-80
2023/01/17 11:07:57;;;;;;;;;;;6.40;99.90;;;;;;5031728;28;20023;-80
2023/01/17 11:10:34;;;;;;;;;;;6.50;99.90;;;;;;5043793;28;19925;-82
2023/01/17 11:13:02;;;;;;;;;;;6.70;99.90;;;;;;5066871;28;19962;-79
2023/01/17 11:15:32;;;;;;;;;;;6.90;99.90;;;;;;5089642;28;19988;-82
2023/01/17 11:18:04;;;;;;;;;;;6.90;99.90;;;;;;5048093;28;19909;-83
2023/01/17 11:20:33;;;;;;;;;;;7.10;99.90;;;;;;5056844;28;19925;-80
2023/01/17 11:23:12;;;;;;;;;;;7.20;99.90;;;;;;5056422;28;19925;-80
2023/01/17 11:25:39;;;;;;;;;;;7.40;99.90;;;;;;5066595;28;20023;-81
2023/01/17 11:28:16;;;;;;;;;;;7.70;99.90;;;;;;5020512;28;19928;-80
2023/01/17 11:30:50;;;;;;;;;;;7.90;99.90;;;;;;5059256;28;19947;-80
2023/01/17 11:33:28;;;;;;;;;;;8.80;99.90;;;;;;5067938;28;19920;-81
2023/01/17 11:35:56;;;;;;;;;;;8.50;99.90;;;;;;5068944;28;20024;-80
2023/01/17 11:38:24;;;;;;;;;;;8.80;99.90;;;;;;5078545;28;19921;-82
2023/01/17 11:41:17;;;;;;;;;;;9.00;99.90;;;;;;5054959;28;19921;-81
2023/01/17 11:43:48;;;;;;;;;;;9.30;99.90;;;;;;5078765;28;19924;-83
2023/01/17 11:46:22;;;;;;;;;;;9.50;99.90;;;;;;5064392;28;19920;-81
2023/01/17 11:48:51;;;;;;;;;;;9.80;99.90;;;;;;5077186;28;19930;-79
2023/01/17 11:51:20;;;;;;;;;;;9.90;99.90;;;;;;5074311;28;19935;-79
2023/01/17 11:53:48;;;;;;;;;;;10.10;99.90;;;;;;5063246;28;19985;-79
2023/01/17 11:56:27;;;;;;;;;;;10.20;99.90;;;;;;5029792;28;20286;-79
2023/01/17 11:59:08;;;;;;;;;;;10.20;99.90;;;;;;5023585;28;20397;-81
2023/01/17 12:01:37;;;;;;;;;;;10.00;99.90;;;;;;5056682;28;19932;-80
2023/01/17 12:04:12;;;;;;;;;;;9.80;99.90;;;;;;5054927;28;20408;-81
2023/01/17 12:06:44;;;;;;;;;;;9.50;99.90;;;;;;5058387;28;19932;-80
2023/01/17 12:13:59;;;;;;;;;;;9.10;99.90;;;;;;5040109;28;19925;-75
2023/01/17 12:14:36;;;;;;;;;;;9.00;99.90;;;;;;5030027;28;19925;-74
2023/01/17 12:17:10;;;;;;;;;;;8.80;99.90;;;;;;5052940;28;19958;-76
2023/01/17 12:19:47;;;;;;;;;;;8.70;99.90;;;;;;5050462;28;20630;-74
2023/01/17 12:22:22;;;;;;;;;;;8.70;99.90;;;;;;5054685;28;20027;-75
2023/01/17 12:24:57;;;;;;;;;;;8.70;99.90;;;;;;5052664;28;19924;-75
2023/01/17 12:27:29;;;;;;;;;;;8.70;99.90;;;;;;5027423;28;20031;-76
2023/01/17 12:30:04;;;;;;;;;;;8.80;99.90;;;;;;5040869;28;19932;-77
2023/01/17 12:32:36;;;;;;;;;;;8.90;99.90;;;;;;5024923;28;20000;-76
2023/01/17 12:35:08;;;;;;;;;;;9.00;99.90;;;;;;5047603;28;19924;-74
2023/01/17 12:37:37;;;;;;;;;;;9.10;99.90;;;;;;5061328;28;19929;-75
2023/01/17 12:40:07;;;;;;;;;;;9.20;99.90;;;;;;5030419;28;19925;-74
2023/01/17 12:42:36;;;;;;;;;;;9.40;99.90;;;;;;5055239;28;20407;-76
2023/01/17 12:45:07;;;;;;;;;;;9.60;99.90;;;;;;5042483;28;19928;-76
2023/01/17 12:47:36;;;;;;;;;;;9.90;99.90;;;;;;5048055;28;20000;-76
2023/01/17 12:50:07;;;;;;;;;;;10.10;99.90;;;;;;5048098;28;19924;-76
2023/01/17 12:52:38;;;;;;;;;;;10.50;99.90;;;;;;5055412;28;20453;-76
2023/01/17 12:55:10;;;;;;;;;;;10.70;99.90;;;;;;5055978;28;19992;-77
2023/01/17 12:57:39;;;;;;;;;;;11.00;99.90;;;;;;5031662;28;19925;-75
2023/01/17 13:00:10;;;;;;;;;;;11.30;99.90;;;;;;5048290;28;19924;-76
2023/01/17 13:02:38;;;;;;;;;;;11.50;99.90;;;;;;5051612;28;19925;-75
2023/01/17 13:05:07;;;;;;;;;;;11.70;99.90;;;;;;5045105;28;19925;-75
2023/01/17 13:07:39;;;;;;;;;;;11.80;99.90;;;;;;5023300;28;20042;-76
2023/01/17 13:10:16;;;;;;;;;;;12.70;99.90;;;;;;5048310;28;19939;-75
2023/01/17 13:12:43;;;;;;;;;;;11.70;99.90;;;;;;5048227;28;20001;-74
2023/01/17 13:15:22;;;;;;;;;;;11.80;99.90;;;;;;5031195;28;20019;-75
2023/01/17 13:17:51;;;;;;;;;;;11.70;99.90;;;;;;5029339;28;19986;-76
2023/01/17 13:20:21;;;;;;;;;;;11.80;99.90;;;;;;5052937;28;19924;-75
2023/01/17 13:22:48;;;;;;;;;;;11.80;99.90;;;;;;5054720;28;19947;-75
2023/01/17 13:25:25;;;;;;;;;;;11.70;99.90;;;;;;5044519;28;20276;-76
2023/01/17 13:28:01;;;;;;;;;;;11.60;99.90;;;;;;5023981;28;20073;-75
2023/01/17 13:30:42;;;;;;;;;;;11.50;99.90;;;;;;5050488;28;19928;-74
2023/01/17 13:33:22;;;;;;;;;;;11.40;99.90;;;;;;5040584;28;19940;-74
2023/01/17 13:35:57;;;;;;;;;;;11.40;99.90;;;;;;5044858;28;20290;-76
2023/01/17 13:38:33;;;;;;;;;;;11.50;99.90;;;;;;5051999;28;20416;-76
2023/01/17 13:41:03;;;;;;;;;;;11.50;99.90;;;;;;5051986;28;19924;-76
2023/01/17 13:43:31;;;;;;;;;;;11.50;99.90;;;;;;5051600;28;19924;-74
2023/01/17 13:46:02;;;;;;;;;;;11.60;99.90;;;;;;5050838;28;19931;-75
2023/01/17 13:48:30;;;;;;;;;;;11.60;99.90;;;;;;5051622;28;19965;-74
2023/01/17 13:50:57;;;;;;;;;;;11.50;99.90;;;;;;5055329;28;19928;-75
2023/01/17 13:53:57;;;;;;;;;;;11.50;99.90;;;;;;5046244;28;19921;-75
2023/01/17 13:56:39;;;;;;;;;;;11.30;99.90;;;;;;5052323;28;19925;-74
2023/01/17 13:59:21;;;;;;;;;;;10.90;99.90;;;;;;5026488;28;19932;-74
2023/01/17 14:01:52;;;;;;;;;;;10.80;99.90;;;;;;5047720;28;19931;-75
2023/01/17 14:04:20;;;;;;;;;;;10.70;99.90;;;;;;5048467;28;19921;-74
2023/01/17 14:06:48;;;;;;;;;;;10.50;99.90;;;;;;5049184;28;19928;-74
2023/01/17 14:09:20;;;;;;;;;;;10.40;99.90;;;;;;5036917;28;19921;-74
2023/01/17 14:11:52;;;;;;;;;;;10.40;99.90;;;;;;5059146;28;19920;-75
2023/01/17 14:14:35;;;;;;;;;;;10.40;99.90;;;;;;5051404;28;19925;-74
2023/01/17 14:17:24;;;;;;;;;;;10.30;99.90;;;;;;5051332;28;19924;-73
2023/01/17 14:19:53;;;;;;;;;;;10.20;99.90;;;;;;5048906;28;19925;-74
2023/01/17 14:22:23;;;;;;;;;;;10.20;99.90;;;;;;5051153;28;20027;-73
2023/01/17 14:25:00;;;;;;;;;;;10.10;99.90;;;;;;5053375;28;20346;-74
2023/01/17 14:27:28;;;;;;;;;;;9.90;99.90;;;;;;5056622;28;19921;-77
2023/01/17 14:29:57;;;;;;;;;;;9.60;99.90;;;;;;5053985;28;19929;-73
2023/01/17 14:32:26;;;;;;;;;;;9.60;99.90;;;;;;5052165;28;20381;-76
2023/01/17 14:34:56;;;;;;;;;;;9.40;99.90;;;;;;5052444;28;19928;-74
2023/01/17 14:37:27;;;;;;;;;;;9.30;99.90;;;;;;5052942;28;19924;-75
2023/01/17 14:39:54;;;;;;;;;;;9.10;99.90;;;;;;5047650;28;19924;-74
2023/01/17 14:42:22;;;;;;;;;;;9.00;99.90;;;;;;5052694;28;19925;-74
2023/01/17 14:44:50;;;;;;;;;;;8.80;99.90;;;;;;5050509;28;19924;-74
2023/01/17 14:47:17;;;;;;;;;;;8.60;99.90;;;;;;5055633;28;19925;-75
2023/01/17 14:49:44;;;;;;;;;;;8.40;99.90;;;;;;5052257;28;19971;-76
2023/01/17 14:52:15;;;;;;;;;;;8.20;99.90;;;;;;5049527;28;19929;-75
2023/01/17 14:54:52;;;;;;;;;;;8.00;99.90;;;;;;5046987;28;19986;-75
2023/01/17 14:57:27;;;;;;;;;;;7.70;99.90;;;;;;5053515;28;19947;-74
2023/01/17 15:00:10;;;;;;;;;;;7.60;99.90;;;;;;5055431;28;20069;-74
2023/01/17 15:02:39;;;;;;;;;;;7.40;99.90;;;;;;5060307;28;20015;-75
2023/01/17 15:05:06;;;;;;;;;;;7.20;99.90;;;;;;5045666;28;20622;-75
2023/01/17 15:07:36;;;;;;;;;;;6.30;99.90;;;;;;5051707;28;19925;-73
2023/01/17 15:10:03;;;;;;;;;;;6.90;99.90;;;;;;5045083;28;19928;-74
2023/01/17 15:12:29;;;;;;;;;;;6.80;99.90;;;;;;5056139;28;20012;-74
2023/01/17 15:14:58;;;;;;;;;;;6.60;99.90;;;;;;5033458;28;19921;-74
2023/01/17 15:17:24;;;;;;;;;;;6.50;99.90;;;;;;5052810;28;20063;-74
2023/01/17 15:19:56;;;;;;;;;;;6.40;99.90;;;;;;5052253;28;20023;-74
2023/01/17 15:22:24;;;;;;;;;;;6.20;99.90;;;;;;5056866;28;19933;-73
2023/01/17 15:24:53;;;;;;;;;;;6.10;99.90;;;;;;5058911;28;19924;-73
2023/01/17 15:27:20;;;;;;;;;;;6.10;99.90;;;;;;5055230;28;19928;-74
2023/01/17 15:29:47;;;;;;;;;;;5.90;99.90;;;;;;5050241;28;20517;-74
2023/01/17 15:32:18;;;;;;;;;;;5.90;99.90;;;;;;5051603;28;19954;-73
2023/01/17 15:34:45;;;;;;;;;;;5.80;99.90;;;;;;5054245;28;19920;-73
2023/01/17 15:37:22;;;;;;;;;;;5.80;99.90;;;;;;5053815;28;19978;-73
2023/01/17 15:39:49;;;;;;;;;;;5.70;99.90;;;;;;5048526;28;20045;-73
2023/01/17 15:42:21;;;;;;;;;;;5.70;99.90;;;;;;5045909;28;19971;-73
2023/01/17 15:44:51;;;;;;;;;;;6.00;99.90;;;;;;5052008;28;19931;-73
2023/01/17 15:47:26;;;;;;;;;;;5.60;99.90;;;;;;5048772;28;20023;-73
2023/01/17 15:49:53;;;;;;;;;;;5.50;99.90;;;;;;5051339;28;19920;-74
2023/01/17 15:52:20;;;;;;;;;;;5.50;99.90;;;;;;5051372;28;19936;-74
2023/01/17 15:54:49;;;;;;;;;;;5.40;99.90;;;;;;5033196;28;20395;-74
2023/01/17 15:57:23;;;;;;;;;;;5.40;99.90;;;;;;5050642;28;19964;-72
2023/01/17 15:59:51;;;;;;;;;;;5.40;99.90;;;;;;5057207;28;19928;-73
2023/01/17 16:02:35;;;;;;;;;;;5.40;99.90;;;;;;5052212;28;19931;-74